sensor_id;sensor_type;location;lat;lon;timestamp;P1;durP1;ratioP1;P2;durP2;ratioP2
59145;SDS011;44928;53.074;6.646;2023-04-24T00:00:03;2.53;;;1.30;;
59145;SDS011;44928;53.074;6.646;2023-04-24T00:02:40;2.50;;;1.05;;
59145;SDS011;44928;53.074;6.646;2023-04-24T00:05:13;2.78;;;1.10;;
59145;SDS011;44928;53.074;6.646;2023-04-24T00:07:40;1.95;;;1.00;;
59145;SDS011;44928;53.074;6.646;2023-04-24T00:10:07;3.38;;;1.00;;
59145;SDS011;44928;53.074;6.646;2023-04-24T00:12:33;2.60;;;1.10;;
59145;SDS011;44928;53.074;6.646;2023-04-24T00:15:00;2.13;;;0.95;;
59145;SDS011;44928;53.074;6.646;2023-04-24T00:17:26;1.92;;;0.80;;
59145;SDS011;44928;53.074;6.646;2023-04-24T00:19:52;1.98;;;0.73;;
59145;SDS011;44928;53.074;6.646;2023-04-24T00:22:26;1.40;;;0.80;;
59145;SDS011;44928;53.074;6.646;2023-04-24T00:24:52;1.10;;;0.80;;
59145;SDS011;44928;53.074;6.646;2023-04-24T00:27:18;2.10;;;0.80;;
59145;SDS011;44928;53.074;6.646;2023-04-24T00:29:44;1.90;;;0.70;;
59145;SDS011;44928;53.074;6.646;2023-04-24T00:32:10;1.60;;;0.80;;
59145;SDS011;44928;53.074;6.646;2023-04-24T00:34:36;2.13;;;0.80;;
59145;SDS011;44928;53.074;6.646;2023-04-24T00:37:01;1.40;;;0.60;;
59145;SDS011;44928;53.074;6.646;2023-04-24T00:39:27;2.95;;;0.80;;
59145;SDS011;44928;53.074;6.646;2023-04-24T00:41:53;1.27;;;0.70;;
59145;SDS011;44928;53.074;6.646;2023-04-24T00:44:20;0.60;;;0.60;;
59145;SDS011;44928;53.074;6.646;2023-04-24T00:46:46;2.75;;;0.80;;
59145;SDS011;44928;53.074;6.646;2023-04-24T00:49:17;1.77;;;0.70;;
59145;SDS011;44928;53.074;6.646;2023-04-24T00:51:44;1.63;;;0.80;;
59145;SDS011;44928;53.074;6.646;2023-04-24T00:54:13;2.08;;;0.82;;
59145;SDS011;44928;53.074;6.646;2023-04-24T00:56:40;1.63;;;0.80;;
59145;SDS011;44928;53.074;6.646;2023-04-24T00:59:06;2.50;;;1.00;;
59145;SDS011;44928;53.074;6.646;2023-04-24T01:01:32;1.92;;;0.80;;
59145;SDS011;44928;53.074;6.646;2023-04-24T01:03:58;1.92;;;0.88;;
59145;SDS011;44928;53.074;6.646;2023-04-24T01:06:27;1.55;;;0.88;;
59145;SDS011;44928;53.074;6.646;2023-04-24T01:08:54;2.05;;;0.90;;
59145;SDS011;44928;53.074;6.646;2023-04-24T01:11:23;1.55;;;0.80;;
59145;SDS011;44928;53.074;6.646;2023-04-24T01:13:50;2.67;;;0.90;;
59145;SDS011;44928;53.074;6.646;2023-04-24T01:16:16;1.25;;;0.85;;
59145;SDS011;44928;53.074;6.646;2023-04-24T01:18:45;1.77;;;0.90;;
59145;SDS011;44928;53.074;6.646;2023-04-24T01:21:12;1.95;;;1.05;;
59145;SDS011;44928;53.074;6.646;2023-04-24T01:23:39;3.28;;;1.00;;
59145;SDS011;44928;53.074;6.646;2023-04-24T01:26:05;1.70;;;1.00;;
59145;SDS011;44928;53.074;6.646;2023-04-24T01:28:31;3.17;;;1.30;;
59145;SDS011;44928;53.074;6.646;2023-04-24T01:30:57;2.70;;;1.20;;
59145;SDS011;44928;53.074;6.646;2023-04-24T01:33:24;3.70;;;1.30;;
59145;SDS011;44928;53.074;6.646;2023-04-24T01:35:51;2.83;;;1.38;;
59145;SDS011;44928;53.074;6.646;2023-04-24T01:38:17;3.28;;;1.50;;
59145;SDS011;44928;53.074;6.646;2023-04-24T01:40:43;3.65;;;1.48;;
59145;SDS011;44928;53.074;6.646;2023-04-24T01:43:08;3.22;;;1.60;;
59145;SDS011;44928;53.074;6.646;2023-04-24T01:45:34;3.00;;;1.65;;
59145;SDS011;44928;53.074;6.646;2023-04-24T01:48:00;3.42;;;1.75;;
59145;SDS011;44928;53.074;6.646;2023-04-24T01:50:26;3.67;;;1.75;;
59145;SDS011;44928;53.074;6.646;2023-04-24T01:52:52;4.50;;;1.98;;
59145;SDS011;44928;53.074;6.646;2023-04-24T01:55:18;4.00;;;2.00;;
59145;SDS011;44928;53.074;6.646;2023-04-24T01:57:43;4.60;;;2.30;;
59145;SDS011;44928;53.074;6.646;2023-04-24T02:00:09;4.63;;;2.05;;
59145;SDS011;44928;53.074;6.646;2023-04-24T02:02:37;5.55;;;2.50;;
59145;SDS011;44928;53.074;6.646;2023-04-24T02:05:05;5.28;;;2.63;;
59145;SDS011;44928;53.074;6.646;2023-04-24T02:07:32;6.03;;;3.20;;
59145;SDS011;44928;53.074;6.646;2023-04-24T02:09:58;7.05;;;3.08;;
59145;SDS011;44928;53.074;6.646;2023-04-24T02:12:24;5.60;;;2.90;;
59145;SDS011;44928;53.074;6.646;2023-04-24T02:14:50;6.95;;;3.45;;
59145;SDS011;44928;53.074;6.646;2023-04-24T02:17:16;6.40;;;3.60;;
59145;SDS011;44928;53.074;6.646;2023-04-24T02:19:42;7.95;;;4.20;;
59145;SDS011;44928;53.074;6.646;2023-04-24T02:22:08;7.25;;;3.80;;
59145;SDS011;44928;53.074;6.646;2023-04-24T02:24:35;6.68;;;3.75;;
59145;SDS011;44928;53.074;6.646;2023-04-24T02:27:02;8.10;;;3.75;;
59145;SDS011;44928;53.074;6.646;2023-04-24T02:29:28;7.15;;;4.30;;
59145;SDS011;44928;53.074;6.646;2023-04-24T02:31:54;7.40;;;4.57;;
59145;SDS011;44928;53.074;6.646;2023-04-24T02:34:19;7.53;;;4.45;;
59145;SDS011;44928;53.074;6.646;2023-04-24T02:36:45;8.32;;;5.05;;
59145;SDS011;44928;53.074;6.646;2023-04-24T02:39:11;7.60;;;4.65;;
59145;SDS011;44928;53.074;6.646;2023-04-24T02:41:38;7.93;;;5.07;;
59145;SDS011;44928;53.074;6.646;2023-04-24T02:44:04;8.50;;;5.15;;
59145;SDS011;44928;53.074;6.646;2023-04-24T02:46:29;8.95;;;5.40;;
59145;SDS011;44928;53.074;6.646;2023-04-24T02:48:55;7.70;;;4.93;;
59145;SDS011;44928;53.074;6.646;2023-04-24T02:51:21;7.88;;;4.75;;
59145;SDS011;44928;53.074;6.646;2023-04-24T02:53:47;7.75;;;4.68;;
59145;SDS011;44928;53.074;6.646;2023-04-24T02:56:13;7.78;;;4.72;;
59145;SDS011;44928;53.074;6.646;2023-04-24T02:58:38;7.25;;;4.68;;
59145;SDS011;44928;53.074;6.646;2023-04-24T03:01:04;7.70;;;5.18;;
59145;SDS011;44928;53.074;6.646;2023-04-24T03:03:30;8.88;;;5.63;;
59145;SDS011;44928;53.074;6.646;2023-04-24T03:05:56;11.18;;;5.65;;
59145;SDS011;44928;53.074;6.646;2023-04-24T03:08:22;8.20;;;5.43;;
59145;SDS011;44928;53.074;6.646;2023-04-24T03:10:48;8.43;;;5.65;;
59145;SDS011;44928;53.074;6.646;2023-04-24T03:13:15;8.20;;;5.25;;
59145;SDS011;44928;53.074;6.646;2023-04-24T03:15:41;8.57;;;5.32;;
59145;SDS011;44928;53.074;6.646;2023-04-24T03:18:07;8.15;;;5.10;;
59145;SDS011;44928;53.074;6.646;2023-04-24T03:20:33;7.93;;;5.30;;
59145;SDS011;44928;53.074;6.646;2023-04-24T03:22:58;8.60;;;4.70;;
59145;SDS011;44928;53.074;6.646;2023-04-24T03:25:24;8.95;;;4.72;;
59145;SDS011;44928;53.074;6.646;2023-04-24T03:27:50;8.05;;;5.22;;
59145;SDS011;44928;53.074;6.646;2023-04-24T03:30:16;7.75;;;5.00;;
59145;SDS011;44928;53.074;6.646;2023-04-24T03:32:42;7.80;;;4.57;;
59145;SDS011;44928;53.074;6.646;2023-04-24T03:35:08;8.23;;;4.70;;
59145;SDS011;44928;53.074;6.646;2023-04-24T03:37:34;7.15;;;4.60;;
59145;SDS011;44928;53.074;6.646;2023-04-24T03:40:00;7.32;;;4.47;;
59145;SDS011;44928;53.074;6.646;2023-04-24T03:42:26;8.00;;;4.75;;
59145;SDS011;44928;53.074;6.646;2023-04-24T03:44:52;7.38;;;4.35;;
59145;SDS011;44928;53.074;6.646;2023-04-24T03:47:18;7.75;;;4.03;;
59145;SDS011;44928;53.074;6.646;2023-04-24T03:49:43;7.30;;;3.75;;
59145;SDS011;44928;53.074;6.646;2023-04-24T03:52:09;6.95;;;3.78;;
59145;SDS011;44928;53.074;6.646;2023-04-24T03:54:35;7.00;;;3.60;;
59145;SDS011;44928;53.074;6.646;2023-04-24T03:57:01;7.63;;;3.38;;
59145;SDS011;44928;53.074;6.646;2023-04-24T03:59:28;6.07;;;3.15;;
59145;SDS011;44928;53.074;6.646;2023-04-24T04:01:54;7.20;;;3.47;;
59145;SDS011;44928;53.074;6.646;2023-04-24T04:04:20;5.70;;;2.90;;
59145;SDS011;44928;53.074;6.646;2023-04-24T04:06:45;7.25;;;3.17;;
59145;SDS011;44928;53.074;6.646;2023-04-24T04:09:11;6.85;;;3.13;;
59145;SDS011;44928;53.074;6.646;2023-04-24T04:11:37;6.18;;;3.05;;
59145;SDS011;44928;53.074;6.646;2023-04-24T04:14:03;7.25;;;3.13;;
59145;SDS011;44928;53.074;6.646;2023-04-24T04:16:29;7.05;;;3.20;;
59145;SDS011;44928;53.074;6.646;2023-04-24T04:18:55;6.72;;;3.72;;
59145;SDS011;44928;53.074;6.646;2023-04-24T04:21:21;6.68;;;3.47;;
59145;SDS011;44928;53.074;6.646;2023-04-24T04:23:46;7.68;;;3.80;;
59145;SDS011;44928;53.074;6.646;2023-04-24T04:26:13;7.47;;;3.80;;
59145;SDS011;44928;53.074;6.646;2023-04-24T04:28:39;8.63;;;4.28;;
59145;SDS011;44928;53.074;6.646;2023-04-24T04:31:05;7.80;;;4.28;;
59145;SDS011;44928;53.074;6.646;2023-04-24T04:33:33;7.82;;;4.35;;
59145;SDS011;44928;53.074;6.646;2023-04-24T04:35:59;7.93;;;4.40;;
59145;SDS011;44928;53.074;6.646;2023-04-24T04:38:25;8.13;;;4.85;;
59145;SDS011;44928;53.074;6.646;2023-04-24T04:40:55;8.27;;;4.82;;
59145;SDS011;44928;53.074;6.646;2023-04-24T04:43:24;7.75;;;4.40;;
59145;SDS011;44928;53.074;6.646;2023-04-24T04:45:50;7.57;;;4.35;;
59145;SDS011;44928;53.074;6.646;2023-04-24T04:48:17;7.03;;;4.07;;
59145;SDS011;44928;53.074;6.646;2023-04-24T04:50:44;7.47;;;3.55;;
59145;SDS011;44928;53.074;6.646;2023-04-24T04:53:09;6.45;;;3.78;;
59145;SDS011;44928;53.074;6.646;2023-04-24T04:55:36;7.50;;;4.20;;
59145;SDS011;44928;53.074;6.646;2023-04-24T04:58:02;6.93;;;2.72;;
59145;SDS011;44928;53.074;6.646;2023-04-24T05:00:28;7.15;;;3.10;;
59145;SDS011;44928;53.074;6.646;2023-04-24T05:02:58;5.95;;;3.13;;
59145;SDS011;44928;53.074;6.646;2023-04-24T05:05:25;4.97;;;2.30;;
59145;SDS011;44928;53.074;6.646;2023-04-24T05:07:51;3.97;;;1.80;;
59145;SDS011;44928;53.074;6.646;2023-04-24T05:10:16;3.95;;;1.55;;
59145;SDS011;44928;53.074;6.646;2023-04-24T05:12:42;3.33;;;1.30;;
59145;SDS011;44928;53.074;6.646;2023-04-24T05:15:08;1.90;;;0.98;;
59145;SDS011;44928;53.074;6.646;2023-04-24T05:17:35;1.55;;;0.90;;
59145;SDS011;44928;53.074;6.646;2023-04-24T05:20:02;2.28;;;0.90;;
59145;SDS011;44928;53.074;6.646;2023-04-24T05:22:30;2.25;;;1.02;;
59145;SDS011;44928;53.074;6.646;2023-04-24T05:24:56;2.03;;;0.70;;
59145;SDS011;44928;53.074;6.646;2023-04-24T05:27:22;3.50;;;0.93;;
59145;SDS011;44928;53.074;6.646;2023-04-24T05:29:48;2.80;;;1.00;;
59145;SDS011;44928;53.074;6.646;2023-04-24T05:32:14;1.67;;;0.95;;
59145;SDS011;44928;53.074;6.646;2023-04-24T05:34:40;2.38;;;1.00;;
59145;SDS011;44928;53.074;6.646;2023-04-24T05:37:05;2.45;;;1.10;;
59145;SDS011;44928;53.074;6.646;2023-04-24T05:39:34;2.40;;;1.02;;
59145;SDS011;44928;53.074;6.646;2023-04-24T05:42:00;2.63;;;1.08;;
59145;SDS011;44928;53.074;6.646;2023-04-24T05:44:26;2.72;;;1.00;;
59145;SDS011;44928;53.074;6.646;2023-04-24T05:46:52;1.70;;;1.00;;
59145;SDS011;44928;53.074;6.646;2023-04-24T05:49:20;3.55;;;1.20;;
59145;SDS011;44928;53.074;6.646;2023-04-24T05:51:46;3.38;;;1.20;;
59145;SDS011;44928;53.074;6.646;2023-04-24T05:54:11;3.70;;;1.52;;
59145;SDS011;44928;53.074;6.646;2023-04-24T05:56:37;3.38;;;1.30;;
59145;SDS011;44928;53.074;6.646;2023-04-24T05:59:04;3.88;;;1.50;;
59145;SDS011;44928;53.074;6.646;2023-04-24T06:01:29;1.67;;;0.98;;
59145;SDS011;44928;53.074;6.646;2023-04-24T06:03:56;2.63;;;1.10;;
59145;SDS011;44928;53.074;6.646;2023-04-24T06:06:23;2.90;;;1.20;;
59145;SDS011;44928;53.074;6.646;2023-04-24T06:08:49;2.60;;;1.30;;
59145;SDS011;44928;53.074;6.646;2023-04-24T06:11:15;3.25;;;1.20;;
59145;SDS011;44928;53.074;6.646;2023-04-24T06:13:41;4.45;;;1.45;;
59145;SDS011;44928;53.074;6.646;2023-04-24T06:16:07;3.33;;;1.30;;
59145;SDS011;44928;53.074;6.646;2023-04-24T06:18:33;2.80;;;1.30;;
59145;SDS011;44928;53.074;6.646;2023-04-24T06:20:58;3.10;;;1.40;;
59145;SDS011;44928;53.074;6.646;2023-04-24T06:23:24;2.72;;;1.50;;
59145;SDS011;44928;53.074;6.646;2023-04-24T06:25:50;1.80;;;0.90;;
59145;SDS011;44928;53.074;6.646;2023-04-24T06:28:16;4.05;;;1.30;;
59145;SDS011;44928;53.074;6.646;2023-04-24T06:30:42;4.25;;;1.60;;
59145;SDS011;44928;53.074;6.646;2023-04-24T06:33:08;4.43;;;1.50;;
59145;SDS011;44928;53.074;6.646;2023-04-24T06:35:35;6.20;;;1.95;;
59145;SDS011;44928;53.074;6.646;2023-04-24T06:38:03;7.03;;;2.40;;
59145;SDS011;44928;53.074;6.646;2023-04-24T06:40:29;7.38;;;2.78;;
59145;SDS011;44928;53.074;6.646;2023-04-24T06:42:55;7.75;;;2.60;;
59145;SDS011;44928;53.074;6.646;2023-04-24T06:45:21;9.45;;;3.08;;
59145;SDS011;44928;53.074;6.646;2023-04-24T06:47:47;7.30;;;2.83;;
59145;SDS011;44928;53.074;6.646;2023-04-24T06:50:13;7.97;;;3.03;;
59145;SDS011;44928;53.074;6.646;2023-04-24T06:52:40;8.68;;;3.60;;
59145;SDS011;44928;53.074;6.646;2023-04-24T06:55:09;9.17;;;3.57;;
59145;SDS011;44928;53.074;6.646;2023-04-24T06:57:36;9.25;;;3.28;;
59145;SDS011;44928;53.074;6.646;2023-04-24T07:00:02;8.65;;;3.72;;
59145;SDS011;44928;53.074;6.646;2023-04-24T07:02:30;8.85;;;3.65;;
59145;SDS011;44928;53.074;6.646;2023-04-24T07:04:56;9.00;;;3.80;;
59145;SDS011;44928;53.074;6.646;2023-04-24T07:07:22;8.57;;;4.03;;
59145;SDS011;44928;53.074;6.646;2023-04-24T07:09:49;8.48;;;3.92;;
59145;SDS011;44928;53.074;6.646;2023-04-24T07:12:15;8.15;;;4.13;;
59145;SDS011;44928;53.074;6.646;2023-04-24T07:14:42;9.40;;;4.25;;
59145;SDS011;44928;53.074;6.646;2023-04-24T07:17:08;11.23;;;4.65;;
59145;SDS011;44928;53.074;6.646;2023-04-24T07:19:34;10.50;;;4.70;;
59145;SDS011;44928;53.074;6.646;2023-04-24T07:22:00;8.35;;;4.00;;
59145;SDS011;44928;53.074;6.646;2023-04-24T07:24:26;7.88;;;3.17;;
59145;SDS011;44928;53.074;6.646;2023-04-24T07:26:53;9.63;;;2.70;;
59145;SDS011;44928;53.074;6.646;2023-04-24T07:29:19;7.28;;;2.20;;
59145;SDS011;44928;53.074;6.646;2023-04-24T07:31:46;6.78;;;2.53;;
59145;SDS011;44928;53.074;6.646;2023-04-24T07:34:12;6.82;;;2.38;;
59145;SDS011;44928;53.074;6.646;2023-04-24T07:36:38;6.10;;;2.13;;
59145;SDS011;44928;53.074;6.646;2023-04-24T07:39:07;7.65;;;2.25;;
59145;SDS011;44928;53.074;6.646;2023-04-24T07:41:33;6.25;;;1.92;;
59145;SDS011;44928;53.074;6.646;2023-04-24T07:43:59;4.28;;;1.55;;
59145;SDS011;44928;53.074;6.646;2023-04-24T07:46:25;4.75;;;1.98;;
59145;SDS011;44928;53.074;6.646;2023-04-24T07:48:52;6.70;;;1.90;;
59145;SDS011;44928;53.074;6.646;2023-04-24T07:51:19;5.70;;;1.77;;
59145;SDS011;44928;53.074;6.646;2023-04-24T07:53:44;5.57;;;2.03;;
59145;SDS011;44928;53.074;6.646;2023-04-24T07:56:10;7.28;;;2.10;;
59145;SDS011;44928;53.074;6.646;2023-04-24T07:58:36;7.15;;;2.42;;
59145;SDS011;44928;53.074;6.646;2023-04-24T08:01:02;4.07;;;1.50;;
59145;SDS011;44928;53.074;6.646;2023-04-24T08:03:27;7.07;;;1.65;;
59145;SDS011;44928;53.074;6.646;2023-04-24T08:05:53;6.35;;;1.40;;
59145;SDS011;44928;53.074;6.646;2023-04-24T08:08:20;6.20;;;1.90;;
59145;SDS011;44928;53.074;6.646;2023-04-24T08:10:47;6.10;;;1.65;;
59145;SDS011;44928;53.074;6.646;2023-04-24T08:13:13;5.93;;;1.85;;
59145;SDS011;44928;53.074;6.646;2023-04-24T08:15:38;7.60;;;2.40;;
59145;SDS011;44928;53.074;6.646;2023-04-24T08:18:05;6.75;;;2.40;;
59145;SDS011;44928;53.074;6.646;2023-04-24T08:20:31;9.77;;;3.60;;
59145;SDS011;44928;53.074;6.646;2023-04-24T08:22:56;11.70;;;4.03;;
59145;SDS011;44928;53.074;6.646;2023-04-24T08:25:22;10.05;;;5.28;;
59145;SDS011;44928;53.074;6.646;2023-04-24T08:27:50;12.98;;;5.72;;
59145;SDS011;44928;53.074;6.646;2023-04-24T08:30:16;16.42;;;6.90;;
59145;SDS011;44928;53.074;6.646;2023-04-24T08:32:42;13.15;;;6.25;;
59145;SDS011;44928;53.074;6.646;2023-04-24T08:35:08;16.48;;;7.82;;
59145;SDS011;44928;53.074;6.646;2023-04-24T08:37:34;19.83;;;9.25;;
59145;SDS011;44928;53.074;6.646;2023-04-24T08:40:01;17.25;;;9.60;;
59145;SDS011;44928;53.074;6.646;2023-04-24T08:42:35;18.30;;;10.60;;
59145;SDS011;44928;53.074;6.646;2023-04-24T08:45:02;15.85;;;8.70;;
59145;SDS011;44928;53.074;6.646;2023-04-24T08:47:28;16.42;;;8.95;;
59145;SDS011;44928;53.074;6.646;2023-04-24T08:49:55;14.60;;;8.38;;
59145;SDS011;44928;53.074;6.646;2023-04-24T08:52:22;16.83;;;9.70;;
59145;SDS011;44928;53.074;6.646;2023-04-24T08:54:48;15.63;;;9.75;;
59145;SDS011;44928;53.074;6.646;2023-04-24T08:57:15;13.32;;;8.35;;
59145;SDS011;44928;53.074;6.646;2023-04-24T08:59:41;15.93;;;9.18;;
59145;SDS011;44928;53.074;6.646;2023-04-24T09:02:09;19.45;;;10.20;;
59145;SDS011;44928;53.074;6.646;2023-04-24T09:04:36;16.00;;;9.82;;
59145;SDS011;44928;53.074;6.646;2023-04-24T09:07:03;20.30;;;10.30;;
59145;SDS011;44928;53.074;6.646;2023-04-24T09:09:31;17.52;;;9.25;;
59145;SDS011;44928;53.074;6.646;2023-04-24T09:11:59;17.27;;;8.30;;
59145;SDS011;44928;53.074;6.646;2023-04-24T09:14:25;14.80;;;9.65;;
59145;SDS011;44928;53.074;6.646;2023-04-24T09:16:53;19.67;;;10.20;;
59145;SDS011;44928;53.074;6.646;2023-04-24T09:19:18;17.45;;;9.27;;
59145;SDS011;44928;53.074;6.646;2023-04-24T09:21:46;15.63;;;9.13;;
59145;SDS011;44928;53.074;6.646;2023-04-24T09:24:16;15.35;;;9.20;;
59145;SDS011;44928;53.074;6.646;2023-04-24T09:26:45;15.45;;;9.48;;
59145;SDS011;44928;53.074;6.646;2023-04-24T09:29:18;16.25;;;8.52;;
59145;SDS011;44928;53.074;6.646;2023-04-24T09:31:44;16.60;;;9.18;;
59145;SDS011;44928;53.074;6.646;2023-04-24T09:34:11;14.23;;;7.95;;
59145;SDS011;44928;53.074;6.646;2023-04-24T09:36:39;14.85;;;8.20;;
59145;SDS011;44928;53.074;6.646;2023-04-24T09:39:09;14.45;;;7.55;;
59145;SDS011;44928;53.074;6.646;2023-04-24T09:41:48;13.07;;;7.28;;
59145;SDS011;44928;53.074;6.646;2023-04-24T09:44:19;14.30;;;6.82;;
59145;SDS011;44928;53.074;6.646;2023-04-24T09:47:05;12.00;;;6.13;;
59145;SDS011;44928;53.074;6.646;2023-04-24T09:49:35;13.03;;;6.90;;
59145;SDS011;44928;53.074;6.646;2023-04-24T09:52:08;13.88;;;6.47;;
59145;SDS011;44928;53.074;6.646;2023-04-24T09:54:35;11.35;;;5.47;;
59145;SDS011;44928;53.074;6.646;2023-04-24T09:57:02;12.23;;;6.03;;
59145;SDS011;44928;53.074;6.646;2023-04-24T09:59:28;13.60;;;6.43;;
59145;SDS011;44928;53.074;6.646;2023-04-24T10:01:54;13.07;;;5.68;;
59145;SDS011;44928;53.074;6.646;2023-04-24T10:06:49;13.52;;;5.60;;
59145;SDS011;44928;53.074;6.646;2023-04-24T10:09:20;13.50;;;5.05;;
59145;SDS011;44928;53.074;6.646;2023-04-24T10:11:51;10.32;;;4.03;;
59145;SDS011;44928;53.074;6.646;2023-04-24T10:14:19;13.98;;;4.35;;
59145;SDS011;44928;53.074;6.646;2023-04-24T10:16:46;13.63;;;5.32;;
59145;SDS011;44928;53.074;6.646;2023-04-24T10:19:16;11.63;;;4.60;;
59145;SDS011;44928;53.074;6.646;2023-04-24T10:21:43;14.20;;;5.38;;
59145;SDS011;44928;53.074;6.646;2023-04-24T10:24:17;12.25;;;4.13;;
59145;SDS011;44928;53.074;6.646;2023-04-24T10:26:48;10.50;;;3.28;;
59145;SDS011;44928;53.074;6.646;2023-04-24T10:29:15;10.20;;;3.58;;
59145;SDS011;44928;53.074;6.646;2023-04-24T10:31:42;8.52;;;3.17;;
59145;SDS011;44928;53.074;6.646;2023-04-24T10:34:11;13.07;;;3.60;;
59145;SDS011;44928;53.074;6.646;2023-04-24T10:36:40;9.73;;;3.20;;
59145;SDS011;44928;53.074;6.646;2023-04-24T10:39:11;11.55;;;3.47;;
59145;SDS011;44928;53.074;6.646;2023-04-24T10:41:38;8.70;;;3.25;;
59145;SDS011;44928;53.074;6.646;2023-04-24T10:44:04;8.93;;;3.22;;
59145;SDS011;44928;53.074;6.646;2023-04-24T10:46:38;10.00;;;3.33;;
59145;SDS011;44928;53.074;6.646;2023-04-24T10:49:08;10.10;;;3.47;;
59145;SDS011;44928;53.074;6.646;2023-04-24T10:51:50;10.65;;;2.53;;
59145;SDS011;44928;53.074;6.646;2023-04-24T10:54:34;7.88;;;2.50;;
59145;SDS011;44928;53.074;6.646;2023-04-24T10:59:51;5.70;;;1.90;;
59145;SDS011;44928;53.074;6.646;2023-04-24T11:02:37;10.45;;;2.45;;
59145;SDS011;44928;53.074;6.646;2023-04-24T11:05:05;7.50;;;2.00;;
59145;SDS011;44928;53.074;6.646;2023-04-24T11:10:37;8.73;;;2.15;;
59145;SDS011;44928;53.074;6.646;2023-04-24T11:13:04;6.78;;;1.83;;
59145;SDS011;44928;53.074;6.646;2023-04-24T11:15:31;11.48;;;2.58;;
59145;SDS011;44928;53.074;6.646;2023-04-24T11:17:57;9.57;;;2.08;;
59145;SDS011;44928;53.074;6.646;2023-04-24T11:20:23;7.60;;;1.77;;
59145;SDS011;44928;53.074;6.646;2023-04-24T11:22:51;8.95;;;1.60;;
59145;SDS011;44928;53.074;6.646;2023-04-24T11:25:19;8.57;;;2.00;;
59145;SDS011;44928;53.074;6.646;2023-04-24T11:27:47;8.07;;;1.92;;
59145;SDS011;44928;53.074;6.646;2023-04-24T11:30:18;6.82;;;1.90;;
59145;SDS011;44928;53.074;6.646;2023-04-24T11:32:48;7.15;;;2.10;;
59145;SDS011;44928;53.074;6.646;2023-04-24T11:35:22;9.05;;;1.75;;
59145;SDS011;44928;53.074;6.646;2023-04-24T11:37:53;6.85;;;1.60;;
59145;SDS011;44928;53.074;6.646;2023-04-24T11:40:20;10.25;;;1.73;;
59145;SDS011;44928;53.074;6.646;2023-04-24T11:42:48;7.28;;;1.67;;
59145;SDS011;44928;53.074;6.646;2023-04-24T11:47:42;9.60;;;1.85;;
59145;SDS011;44928;53.074;6.646;2023-04-24T11:50:11;5.88;;;1.55;;
59145;SDS011;44928;53.074;6.646;2023-04-24T11:52:42;8.00;;;1.80;;
59145;SDS011;44928;53.074;6.646;2023-04-24T11:55:22;10.50;;;1.90;;
59145;SDS011;44928;53.074;6.646;2023-04-24T11:57:57;8.10;;;1.45;;
59145;SDS011;44928;53.074;6.646;2023-04-24T12:00:31;7.40;;;1.70;;
59145;SDS011;44928;53.074;6.646;2023-04-24T12:03:08;9.95;;;2.22;;
59145;SDS011;44928;53.074;6.646;2023-04-24T12:05:36;10.93;;;2.20;;
59145;SDS011;44928;53.074;6.646;2023-04-24T12:08:03;9.30;;;2.03;;
59145;SDS011;44928;53.074;6.646;2023-04-24T12:10:30;6.70;;;1.48;;
59145;SDS011;44928;53.074;6.646;2023-04-24T12:12:58;6.05;;;1.38;;
59145;SDS011;44928;53.074;6.646;2023-04-24T12:15:25;8.00;;;1.77;;
59145;SDS011;44928;53.074;6.646;2023-04-24T12:17:52;6.88;;;1.90;;
59145;SDS011;44928;53.074;6.646;2023-04-24T12:20:23;6.40;;;1.60;;
59145;SDS011;44928;53.074;6.646;2023-04-24T12:22:56;9.13;;;1.88;;
59145;SDS011;44928;53.074;6.646;2023-04-24T12:25:24;10.00;;;1.80;;
59145;SDS011;44928;53.074;6.646;2023-04-24T12:27:52;8.63;;;1.92;;
59145;SDS011;44928;53.074;6.646;2023-04-24T12:30:28;6.43;;;1.70;;
59145;SDS011;44928;53.074;6.646;2023-04-24T12:32:56;6.65;;;1.60;;
59145;SDS011;44928;53.074;6.646;2023-04-24T12:35:23;6.10;;;1.42;;
59145;SDS011;44928;53.074;6.646;2023-04-24T12:37:50;7.18;;;1.73;;
59145;SDS011;44928;53.074;6.646;2023-04-24T12:40:17;7.05;;;1.60;;
59145;SDS011;44928;53.074;6.646;2023-04-24T12:42:44;7.00;;;1.50;;
59145;SDS011;44928;53.074;6.646;2023-04-24T12:45:13;8.57;;;2.15;;
59145;SDS011;44928;53.074;6.646;2023-04-24T12:47:40;6.53;;;1.50;;
59145;SDS011;44928;53.074;6.646;2023-04-24T12:50:07;8.95;;;1.80;;
59145;SDS011;44928;53.074;6.646;2023-04-24T12:52:34;8.63;;;1.90;;
59145;SDS011;44928;53.074;6.646;2023-04-24T12:55:01;5.35;;;1.77;;
59145;SDS011;44928;53.074;6.646;2023-04-24T12:57:28;5.55;;;1.30;;
59145;SDS011;44928;53.074;6.646;2023-04-24T12:59:56;6.72;;;1.48;;
59145;SDS011;44928;53.074;6.646;2023-04-24T13:02:24;6.38;;;1.60;;
59145;SDS011;44928;53.074;6.646;2023-04-24T13:04:52;4.82;;;1.02;;
59145;SDS011;44928;53.074;6.646;2023-04-24T13:07:19;4.93;;;1.10;;
59145;SDS011;44928;53.074;6.646;2023-04-24T13:09:45;6.32;;;1.23;;
59145;SDS011;44928;53.074;6.646;2023-04-24T13:12:12;7.90;;;1.08;;
59145;SDS011;44928;53.074;6.646;2023-04-24T13:14:39;5.22;;;1.38;;
59145;SDS011;44928;53.074;6.646;2023-04-24T13:17:05;6.10;;;1.30;;
59145;SDS011;44928;53.074;6.646;2023-04-24T13:19:39;5.22;;;1.10;;
59145;SDS011;44928;53.074;6.646;2023-04-24T13:22:06;5.65;;;1.23;;
59145;SDS011;44928;53.074;6.646;2023-04-24T13:24:34;6.15;;;1.27;;
59145;SDS011;44928;53.074;6.646;2023-04-24T13:27:00;9.38;;;1.20;;
59145;SDS011;44928;53.074;6.646;2023-04-24T13:29:26;5.35;;;1.08;;
59145;SDS011;44928;53.074;6.646;2023-04-24T13:31:52;6.32;;;1.33;;
59145;SDS011;44928;53.074;6.646;2023-04-24T13:34:22;5.95;;;0.85;;
59145;SDS011;44928;53.074;6.646;2023-04-24T13:36:49;5.90;;;1.17;;
59145;SDS011;44928;53.074;6.646;2023-04-24T13:39:16;4.45;;;1.10;;
59145;SDS011;44928;53.074;6.646;2023-04-24T13:41:42;4.97;;;1.00;;
59145;SDS011;44928;53.074;6.646;2023-04-24T13:44:08;5.90;;;1.30;;
59145;SDS011;44928;53.074;6.646;2023-04-24T13:46:34;7.72;;;1.88;;
59145;SDS011;44928;53.074;6.646;2023-04-24T13:49:13;4.40;;;0.85;;
59145;SDS011;44928;53.074;6.646;2023-04-24T13:51:58;7.38;;;1.25;;
59145;SDS011;44928;53.074;6.646;2023-04-24T13:54:24;3.20;;;0.77;;
59145;SDS011;44928;53.074;6.646;2023-04-24T13:56:51;3.97;;;0.85;;
59145;SDS011;44928;53.074;6.646;2023-04-24T13:59:17;4.47;;;1.25;;
59145;SDS011;44928;53.074;6.646;2023-04-24T14:01:44;7.55;;;1.45;;
59145;SDS011;44928;53.074;6.646;2023-04-24T14:04:10;3.78;;;0.60;;
59145;SDS011;44928;53.074;6.646;2023-04-24T14:06:36;2.03;;;0.65;;
59145;SDS011;44928;53.074;6.646;2023-04-24T14:09:01;5.57;;;0.95;;
59145;SDS011;44928;53.074;6.646;2023-04-24T14:11:27;3.78;;;0.98;;
59145;SDS011;44928;53.074;6.646;2023-04-24T14:13:54;1.60;;;0.50;;
59145;SDS011;44928;53.074;6.646;2023-04-24T14:16:23;6.43;;;0.80;;
59145;SDS011;44928;53.074;6.646;2023-04-24T14:18:49;7.50;;;0.95;;
59145;SDS011;44928;53.074;6.646;2023-04-24T14:21:15;3.85;;;0.70;;
59145;SDS011;44928;53.074;6.646;2023-04-24T14:23:41;7.43;;;1.38;;
59145;SDS011;44928;53.074;6.646;2023-04-24T14:26:07;7.30;;;1.27;;
59145;SDS011;44928;53.074;6.646;2023-04-24T14:28:33;6.22;;;1.10;;
59145;SDS011;44928;53.074;6.646;2023-04-24T14:30:59;7.63;;;1.25;;
59145;SDS011;44928;53.074;6.646;2023-04-24T14:33:24;7.45;;;1.40;;
59145;SDS011;44928;53.074;6.646;2023-04-24T14:35:50;9.55;;;1.92;;
59145;SDS011;44928;53.074;6.646;2023-04-24T14:38:20;8.40;;;1.50;;
59145;SDS011;44928;53.074;6.646;2023-04-24T14:40:46;6.63;;;1.50;;
59145;SDS011;44928;53.074;6.646;2023-04-24T14:43:12;12.77;;;2.30;;
59145;SDS011;44928;53.074;6.646;2023-04-24T14:45:38;11.05;;;2.30;;
59145;SDS011;44928;53.074;6.646;2023-04-24T14:48:06;8.52;;;1.63;;
59145;SDS011;44928;53.074;6.646;2023-04-24T14:50:33;7.72;;;1.55;;
59145;SDS011;44928;53.074;6.646;2023-04-24T14:53:01;9.82;;;1.80;;
59145;SDS011;44928;53.074;6.646;2023-04-24T14:55:27;9.98;;;2.67;;